Portada
METAR-TAF:

METAR-TAF

Aeroports :

Whiting_Field_Naval_Air_Station_South_Airport

Milton, Florida, Estats Units d'Amèrica

latitud: 30-41-50N, longitud: 087-01-12W, altitud: 54 m

Observació

L'informe es va fer fa 1 hora i 13 minuts, a les 04:56 UTC
Vent 3 kt del Nord/Nord-Oest
Temperatura 22°C
Humitat 94%
Pressió 1016 hPa
Visibilitat: 16.1 km
Cel clar

METAR: KNDZ 160456Z AUTO 33003KT 10SM CLR 22/21 A3000 RMK AO2 SLP145 T02170206 $

Hora: 01:09 (06:09 UTC)


TAF: manca

Observacions i pronòstics meteorològics de més de 4000 aeroports (METAR i TAF).

Les estacions disponibles són els punts grocs i vermells al mapa.

Posi el ratolí al punt desitjat per veure el nom de l'estació.

Feu clic per veure les observacions i els pronòstics meteorològics.

Per canviar el mapa: feu clic els botons verds amb una creu de color negre per apropar; al botó verd amb un guió per allunyar la imatge; o en les fletxes verdes per a mapes adjacents.


METAR-TAF: